Time;durP1;ratioP1;P1;durP2;ratioP2;P2;SDS_P1;SDS_P2;PMS_P1;PMS_P2;Temp;Humidity;BMP_temperature;BMP_pressure;BME280_temperature;BME280_humidity;BME280_pressure;Samples;Min_cycle;Max_cycle;Signal;HPM_P1;HPM_P2
2023/02/18 00:01:13;;;;;;;11.45;7.28;;;12.30;99.90;;;;;;5193747;22;20233;-91
2023/02/18 00:03:14;;;;;;;12.60;7.05;;;12.20;99.90;;;;;;5194058;22;20212;-92
2023/02/18 00:05:15;;;;;;;12.32;8.38;;;12.20;99.90;;;;;;5194006;22;20150;-93
2023/02/18 00:07:16;;;;;;;16.02;9.00;;;12.10;99.90;;;;;;5193655;22;20494;-94
2023/02/18 00:09:16;;;;;;;15.63;9.07;;;12.30;99.90;;;;;;5193784;22;20173;-94
2023/02/18 00:11:19;;;;;;;14.15;9.82;;;12.30;99.90;;;;;;5194148;22;20162;-93
2023/02/18 00:13:20;;;;;;;18.15;10.68;;;12.40;99.90;;;;;;5193727;22;20190;-92
2023/02/18 00:15:21;;;;;;;18.63;11.30;;;12.40;99.90;;;;;;5194015;22;20284;-94
2023/02/18 00:17:21;;;;;;;16.48;11.25;;;12.40;99.90;;;;;;5193977;22;20170;-95
2023/02/18 00:19:22;;;;;;;17.02;12.13;;;12.30;99.90;;;;;;5193762;22;20166;-95
2023/02/18 00:21:23;;;;;;;18.80;11.23;;;12.30;99.90;;;;;;5219325;22;20202;-91
2023/02/18 00:23:24;;;;;;;22.42;11.50;;;12.40;99.90;;;;;;5194068;22;20673;-92
2023/02/18 00:25:25;;;;;;;18.00;10.85;;;12.40;99.90;;;;;;5194030;22;20142;-94
2023/02/18 00:27:26;;;;;;;18.13;9.85;;;12.40;99.90;;;;;;5193901;22;20619;-92
2023/02/18 00:29:27;;;;;;;15.63;10.65;;;12.30;99.90;;;;;;5193810;22;20170;-92
2023/02/18 00:31:31;;;;;;;14.80;10.27;;;12.30;99.90;;;;;;5193975;22;20146;-94
2023/02/18 00:33:34;;;;;;;16.80;8.70;;;12.20;99.90;;;;;;5194040;22;20263;-91
2023/02/18 00:35:35;;;;;;;15.73;9.70;;;12.20;99.90;;;;;;5193683;22;20232;-93
2023/02/18 00:37:35;;;;;;;18.70;9.57;;;12.10;99.90;;;;;;5193721;22;20150;-92
2023/02/18 00:39:36;;;;;;;14.68;10.10;;;12.20;99.90;;;;;;5193632;22;20166;-94
2023/02/18 00:41:37;;;;;;;20.17;10.18;;;12.20;99.90;;;;;;5193943;22;20150;-92
2023/02/18 00:43:38;;;;;;;19.75;9.07;;;12.30;99.90;;;;;;5193970;22;20241;-92
2023/02/18 00:45:39;;;;;;;14.93;9.27;;;12.20;99.90;;;;;;5193830;22;20160;-94
2023/02/18 00:47:39;;;;;;;15.75;8.80;;;12.20;99.90;;;;;;5193465;22;20203;-93
2023/02/18 00:49:40;;;;;;;14.20;8.82;;;11.90;99.90;;;;;;5193428;22;20198;-94
2023/02/18 00:51:41;;;;;;;17.45;9.85;;;11.90;99.90;;;;;;5219009;22;20191;-95
2023/02/18 00:53:42;;;;;;;18.85;9.27;;;11.90;99.90;;;;;;5193569;22;20150;-92
2023/02/18 00:55:44;;;;;;;15.13;9.15;;;12.10;99.90;;;;;;5193800;22;20161;-95
2023/02/18 00:57:45;;;;;;;15.98;8.50;;;12.10;99.90;;;;;;5193846;22;20157;-94
2023/02/18 00:59:45;;;;;;;15.63;9.30;;;12.00;99.90;;;;;;5194101;22;20268;-96
2023/02/18 01:01:46;;;;;;;15.75;8.85;;;12.00;99.90;;;;;;5193558;22;20186;-92
2023/02/18 01:03:47;;;;;;;16.30;8.75;;;11.80;99.90;;;;;;5193962;22;20227;-94
2023/02/18 01:05:49;;;;;;;16.98;8.77;;;11.70;99.90;;;;;;5193970;22;20588;-91
2023/02/18 01:07:49;;;;;;;16.75;9.93;;;11.80;99.90;;;;;;5193714;22;20215;-92
2023/02/18 01:09:50;;;;;;;19.77;10.63;;;11.70;99.90;;;;;;5193167;22;20169;-92
2023/02/18 01:11:51;;;;;;;17.63;10.55;;;11.80;99.90;;;;;;5193483;22;20161;-91
2023/02/18 01:13:52;;;;;;;17.25;10.55;;;11.90;99.90;;;;;;5193529;22;20158;-92
2023/02/18 01:15:53;;;;;;;19.70;11.77;;;11.90;99.90;;;;;;5193809;22;20147;-91
2023/02/18 01:17:53;;;;;;;20.00;11.40;;;12.00;99.90;;;;;;5193667;22;20508;-92
2023/02/18 01:19:54;;;;;;;18.38;11.95;;;12.00;99.90;;;;;;5193439;22;20165;-92
2023/02/18 01:21:55;;;;;;;18.00;10.05;;;12.20;99.90;;;;;;5219035;22;20244;-91
2023/02/18 01:23:57;;;;;;;17.42;10.70;;;12.30;99.90;;;;;;5193551;22;20642;-93
2023/02/18 01:25:57;;;;;;;16.83;10.77;;;12.20;99.90;;;;;;5193467;22;20185;-90
2023/02/18 01:27:58;;;;;;;15.20;9.93;;;12.10;99.90;;;;;;5193634;22;20524;-89
2023/02/18 01:29:59;;;;;;;16.55;9.45;;;12.10;99.90;;;;;;5193399;22;20174;-89
2023/02/18 01:32:00;;;;;;;17.10;11.13;;;12.00;99.90;;;;;;5193451;22;20181;-90
2023/02/18 01:34:00;;;;;;;16.80;10.73;;;11.90;99.90;;;;;;5219076;22;20154;-93
2023/02/18 01:36:03;;;;;;;13.50;8.80;;;11.90;99.90;;;;;;5193565;22;20244;-89
2023/02/18 01:38:04;;;;;;;12.10;7.95;;;11.90;99.90;;;;;;5193651;22;20624;-89
2023/02/18 01:40:07;;;;;;;10.65;7.28;;;11.80;99.90;;;;;;5193249;22;20252;-93
2023/02/18 01:42:18;;;;;;;14.93;7.82;;;11.70;99.90;;;;;;5193566;22;20180;-90
2023/02/18 01:44:27;;;;;;;10.15;6.95;;;11.70;99.90;;;;;;5193250;22;20671;-93
2023/02/18 01:46:28;;;;;;;11.32;6.97;;;11.70;99.90;;;;;;5193085;22;20153;-92
2023/02/18 01:48:52;;;;;;;10.45;6.18;;;11.90;99.90;;;;;;5192986;22;20502;-89
2023/02/18 01:51:01;;;;;;;12.55;7.93;;;11.70;99.90;;;;;;5193374;22;20158;-91
2023/02/18 01:53:02;;;;;;;10.82;6.57;;;11.60;99.90;;;;;;5193380;22;20189;-93
2023/02/18 01:55:05;;;;;;;9.40;6.70;;;11.80;99.90;;;;;;5193443;22;20151;-91
2023/02/18 01:57:12;;;;;;;8.10;5.70;;;11.90;99.90;;;;;;5193319;22;20188;-90
2023/02/18 01:59:20;;;;;;;10.18;5.40;;;11.90;99.90;;;;;;5218805;22;20168;-90
2023/02/18 02:01:22;;;;;;;11.40;6.10;;;11.90;99.90;;;;;;5193315;22;20150;-94
2023/02/18 02:03:23;;;;;;;12.52;5.85;;;11.80;99.90;;;;;;5193516;22;20154;-89
2023/02/18 02:05:23;;;;;;;8.85;5.85;;;11.70;99.90;;;;;;5219066;22;20153;-91
2023/02/18 02:07:27;;;;;;;9.50;5.25;;;11.70;99.90;;;;;;5193354;22;20162;-92
2023/02/18 02:09:30;;;;;;;7.63;4.80;;;11.60;99.90;;;;;;5193553;22;20170;-92
2023/02/18 02:12:18;;;;;;;11.15;5.88;;;11.60;99.90;;;;;;5193497;22;20228;-90
2023/02/18 02:14:33;;;;;;;9.40;5.95;;;11.60;99.90;;;;;;5139762;22;20229;-90
2023/02/18 02:16:43;;;;;;;8.20;5.50;;;11.70;99.90;;;;;;5193240;22;20180;-90
2023/02/18 02:19:05;;;;;;;10.52;6.65;;;11.80;99.90;;;;;;5219010;22;20225;-90
2023/02/18 02:21:55;;;;;;;12.98;6.35;;;11.90;99.90;;;;;;5193214;22;20142;-91
2023/02/18 02:23:59;;;;;;;10.20;6.38;;;12.00;99.90;;;;;;5193070;22;20229;-89
2023/02/18 02:26:33;;;;;;;9.60;6.70;;;11.70;99.90;;;;;;5193151;22;20536;-89
2023/02/18 02:28:36;;;;;;;9.98;5.80;;;11.80;99.90;;;;;;5218548;22;20192;-91
2023/02/18 02:31:13;;;;;;;8.93;5.88;;;11.70;99.90;;;;;;5193112;22;20190;-93
2023/02/18 02:33:42;;;;;;;10.57;6.20;;;11.60;99.90;;;;;;5193239;22;20194;-92
2023/02/18 02:35:55;;;;;;;8.85;6.13;;;11.70;99.90;;;;;;5193251;22;20146;-90
2023/02/18 02:38:06;;;;;;;10.25;6.20;;;11.80;99.90;;;;;;5218879;22;20226;-88
2023/02/18 02:40:24;;;;;;;9.80;6.00;;;11.60;99.90;;;;;;5193363;22;20166;-89
2023/02/18 02:42:45;;;;;;;9.45;6.00;;;11.60;99.90;;;;;;5193215;22;20157;-92
2023/02/18 02:45:08;;;;;;;9.98;6.57;;;11.80;99.90;;;;;;5192907;22;20146;-91
2023/02/18 02:47:19;;;;;;;9.32;5.68;;;11.70;99.90;;;;;;5193251;22;20150;-90
2023/02/18 02:49:45;;;;;;;11.15;5.80;;;11.80;99.90;;;;;;5193068;22;20173;-88
2023/02/18 02:51:55;;;;;;;9.63;5.70;;;11.80;99.90;;;;;;5193197;22;20161;-88
2023/02/18 02:54:12;;;;;;;7.18;4.93;;;11.70;99.90;;;;;;5218859;22;20538;-89
2023/02/18 02:56:19;;;;;;;7.43;4.80;;;11.80;99.90;;;;;;5218367;22;20223;-95
2023/02/18 02:58:20;;;;;;;8.25;4.15;;;11.80;99.90;;;;;;5193667;22;20178;-90
2023/02/18 03:00:33;;;;;;;6.40;3.92;;;11.90;99.90;;;;;;5194798;22;20173;-90
2023/02/18 03:02:53;;;;;;;3.50;2.70;;;11.80;99.90;;;;;;5194810;22;20145;-90
2023/02/18 03:05:03;;;;;;;3.80;2.30;;;11.70;99.90;;;;;;5194618;22;20241;-91
2023/02/18 03:07:21;;;;;;;4.35;2.25;;;11.70;99.90;;;;;;5195150;22;20653;-92
2023/02/18 03:09:46;;;;;;;2.13;1.63;;;11.60;99.90;;;;;;5219785;22;20176;-92
2023/02/18 03:11:58;;;;;;;1.60;1.40;;;11.60;99.90;;;;;;5194541;22;20154;-92
2023/02/18 03:14:09;;;;;;;2.65;1.67;;;11.60;99.90;;;;;;5194491;22;20157;-89
2023/02/18 03:16:40;;;;;;;2.72;1.48;;;11.60;99.90;;;;;;5194799;22;20157;-92
2023/02/18 03:19:04;;;;;;;2.95;1.92;;;11.60;99.90;;;;;;5194728;22;20162;-91
2023/02/18 03:21:35;;;;;;;8.93;2.10;;;11.70;99.90;;;;;;5194027;22;20200;-92
2023/02/18 03:23:48;;;;;;;3.42;2.03;;;11.60;99.90;;;;;;5219972;22;20304;-91
2023/02/18 03:25:50;;;;;;;2.42;1.90;;;11.70;99.90;;;;;;5194331;22;20147;-93
2023/02/18 03:28:16;;;;;;;3.13;1.52;;;11.70;99.90;;;;;;5194462;22;20639;-91
2023/02/18 03:30:23;;;;;;;2.58;1.85;;;11.60;99.90;;;;;;5194163;22;20162;-92
2023/02/18 03:32:26;;;;;;;2.45;1.55;;;11.50;99.90;;;;;;5194274;22;20202;-95
2023/02/18 03:34:31;;;;;;;3.30;1.48;;;11.60;99.90;;;;;;5194240;22;20284;-92
2023/02/18 03:36:34;;;;;;;3.25;1.90;;;11.50;99.90;;;;;;5194051;22;20203;-90
2023/02/18 03:38:44;;;;;;;2.55;1.50;;;11.60;99.90;;;;;;5193971;22;20179;-94
2023/02/18 03:40:46;;;;;;;3.67;2.00;;;11.70;99.90;;;;;;5194459;22;20153;-90
2023/02/18 03:42:47;;;;;;;4.88;2.25;;;11.70;99.90;;;;;;5194395;22;20146;-90
2023/02/18 03:44:47;;;;;;;3.78;2.15;;;11.80;99.90;;;;;;5194272;22;21247;-92
2023/02/18 03:46:48;;;;;;;3.55;2.10;;;11.60;99.90;;;;;;5194248;22;20154;-91
2023/02/18 03:48:49;;;;;;;2.85;1.95;;;11.70;99.90;;;;;;5193934;22;20486;-90
2023/02/18 03:50:50;;;;;;;4.25;2.40;;;11.70;99.90;;;;;;5194055;22;20154;-91
2023/02/18 03:52:51;;;;;;;4.20;2.08;;;11.80;99.90;;;;;;5219931;22;20222;-91
2023/02/18 03:54:51;;;;;;;4.45;1.67;;;11.50;99.90;;;;;;5194028;22;20146;-90
2023/02/18 03:56:52;;;;;;;2.88;1.58;;;11.50;99.90;;;;;;5193983;22;20652;-93
2023/02/18 03:58:53;;;;;;;3.53;1.75;;;11.50;99.90;;;;;;5193790;22;20170;-93
2023/02/18 04:00:54;;;;;;;2.50;1.58;;;11.40;99.90;;;;;;5219644;22;20205;-90
2023/02/18 04:02:54;;;;;;;2.50;1.67;;;11.30;99.90;;;;;;5194059;22;20146;-91
2023/02/18 04:04:55;;;;;;;1.95;1.60;;;11.40;99.90;;;;;;5194279;22;20184;-92
2023/02/18 04:06:56;;;;;;;2.65;1.55;;;11.50;99.90;;;;;;5193868;22;20193;-93
2023/02/18 04:08:56;;;;;;;2.40;1.67;;;11.50;99.90;;;;;;5193868;22;20162;-91
2023/02/18 04:10:57;;;;;;;2.28;1.60;;;11.70;99.90;;;;;;5219538;22;20180;-90
2023/02/18 04:12:58;;;;;;;1.90;1.50;;;11.70;99.90;;;;;;5194103;22;20193;-91
2023/02/18 04:14:59;;;;;;;3.30;1.70;;;11.70;99.90;;;;;;5193909;22;20146;-90
2023/02/18 04:17:00;;;;;;;4.22;1.90;;;11.60;99.90;;;;;;5193907;22;20193;-90
2023/02/18 04:19:00;;;;;;;2.80;1.80;;;11.50;99.90;;;;;;5194017;22;20166;-90
2023/02/18 04:21:01;;;;;;;3.78;2.03;;;11.50;99.90;;;;;;5219811;22;20156;-92
2023/02/18 04:23:03;;;;;;;2.80;1.77;;;11.50;99.90;;;;;;5194173;22;20154;-92
2023/02/18 04:25:04;;;;;;;2.25;1.60;;;11.60;99.90;;;;;;5194186;22;20225;-93
2023/02/18 04:27:05;;;;;;;2.90;1.67;;;11.70;99.90;;;;;;5194050;22;20150;-92
2023/02/18 04:29:06;;;;;;;3.85;2.63;;;11.80;99.90;;;;;;5219581;22;20169;-92
2023/02/18 04:31:07;;;;;;;5.55;3.42;;;11.70;99.90;;;;;;5194054;22;20171;-90
2023/02/18 04:33:07;;;;;;;2.97;2.15;;;11.60;99.90;;;;;;5193723;22;20186;-89
2023/02/18 04:35:08;;;;;;;3.88;2.58;;;11.50;99.90;;;;;;5193791;22;20645;-93
2023/02/18 04:37:09;;;;;;;4.10;2.97;;;11.50;99.90;;;;;;5193939;22;20157;-93
2023/02/18 04:39:09;;;;;;;4.75;3.33;;;11.50;99.90;;;;;;5219409;22;20579;-92
2023/02/18 04:41:11;;;;;;;3.95;3.13;;;11.50;99.90;;;;;;5193866;22;20634;-91
2023/02/18 04:43:12;;;;;;;4.72;2.50;;;11.50;99.90;;;;;;5193914;22;20150;-92
2023/02/18 04:45:13;;;;;;;4.28;2.83;;;11.50;99.90;;;;;;5193805;22;20173;-93
2023/02/18 04:47:14;;;;;;;3.60;2.47;;;11.50;99.90;;;;;;5193780;22;20158;-90
2023/02/18 04:49:14;;;;;;;3.97;2.60;;;11.60;99.90;;;;;;5193530;22;20249;-91
2023/02/18 04:51:15;;;;;;;3.92;2.10;;;11.70;99.90;;;;;;5193790;22;20161;-90
2023/02/18 04:53:16;;;;;;;4.20;2.58;;;11.50;99.90;;;;;;5193643;22;20294;-91
2023/02/18 04:55:17;;;;;;;3.80;2.65;;;11.40;99.90;;;;;;5193711;22;20655;-92
2023/02/18 04:57:17;;;;;;;4.78;2.80;;;11.40;99.90;;;;;;5193869;22;20170;-90
2023/02/18 04:59:18;;;;;;;4.95;2.55;;;11.60;99.90;;;;;;5193521;22;20166;-91
2023/02/18 05:01:19;;;;;;;4.00;2.25;;;11.70;99.90;;;;;;5193853;22;20149;-93
2023/02/18 05:03:20;;;;;;;3.90;2.50;;;11.50;99.90;;;;;;5219064;22;20184;-93
2023/02/18 05:05:21;;;;;;;5.28;2.60;;;11.30;99.90;;;;;;5193764;22;20146;-93
2023/02/18 05:07:22;;;;;;;4.00;2.40;;;11.20;99.90;;;;;;5193844;22;20201;-90
2023/02/18 05:09:23;;;;;;;3.10;2.15;;;11.20;99.90;;;;;;5193958;22;20882;-91
2023/02/18 05:11:23;;;;;;;3.60;1.70;;;11.10;99.90;;;;;;5194052;22;20569;-92
2023/02/18 05:13:24;;;;;;;2.97;1.70;;;11.10;99.90;;;;;;5193544;22;20249;-91
2023/02/18 05:15:25;;;;;;;3.25;1.85;;;11.00;99.90;;;;;;5193659;22;20706;-90
2023/02/18 05:17:26;;;;;;;5.18;1.85;;;10.90;99.90;;;;;;5193804;22;20195;-92
2023/02/18 05:19:27;;;;;;;2.95;1.60;;;10.90;99.90;;;;;;5193362;22;20166;-92
2023/02/18 05:21:27;;;;;;;3.30;1.73;;;10.90;99.90;;;;;;5193123;22;20150;-93
2023/02/18 05:23:28;;;;;;;7.32;1.92;;;11.00;99.90;;;;;;5193772;22;20150;-92
2023/02/18 05:25:29;;;;;;;4.53;1.63;;;11.10;99.90;;;;;;5218804;22;20164;-92
2023/02/18 05:27:30;;;;;;;7.53;1.42;;;11.00;99.90;;;;;;5194039;22;20153;-93
2023/02/18 05:29:30;;;;;;;3.72;1.45;;;11.10;99.90;;;;;;5193263;22;20483;-90
2023/02/18 05:31:31;;;;;;;15.40;1.50;;;11.00;99.90;;;;;;5193349;22;20146;-91
2023/02/18 05:33:32;;;;;;;8.20;1.25;;;11.00;99.90;;;;;;5219385;22;20544;-94
2023/02/18 05:35:33;;;;;;;4.78;0.90;;;11.00;99.90;;;;;;5193996;22;20178;-92
2023/02/18 05:37:34;;;;;;;7.55;1.40;;;11.00;99.90;;;;;;5193599;22;20577;-91
2023/02/18 05:39:35;;;;;;;7.55;1.33;;;10.90;99.90;;;;;;5193376;22;20166;-93
2023/02/18 05:41:36;;;;;;;8.98;1.23;;;11.10;99.90;;;;;;5193616;22;20256;-94
2023/02/18 05:45:56;;;;;;;7.60;1.48;;;10.90;99.90;;;;;;5219676;22;20161;-94
2023/02/18 05:47:57;;;;;;;5.85;1.60;;;10.80;99.90;;;;;;5194613;22;20161;-93
2023/02/18 05:49:57;;;;;;;6.65;1.05;;;10.80;99.90;;;;;;5193421;22;20193;-92
2023/02/18 05:51:58;;;;;;;12.15;1.58;;;10.80;99.90;;;;;;5194281;22;20174;-89
2023/02/18 05:53:59;;;;;;;11.82;1.45;;;10.80;99.90;;;;;;5219079;22;20161;-90
2023/02/18 05:56:00;;;;;;;16.70;1.90;;;10.80;99.90;;;;;;5218877;22;20150;-90
2023/02/18 05:58:00;;;;;;;8.10;1.27;;;10.90;99.90;;;;;;5193583;22;20166;-96
2023/02/18 06:00:01;;;;;;;8.32;1.33;;;10.90;99.90;;;;;;5193119;22;20165;-93
2023/02/18 06:02:05;;;;;;;17.67;2.17;;;10.90;99.90;;;;;;5219952;22;20157;-90
2023/02/18 06:04:06;;;;;;;9.63;1.35;;;10.80;99.90;;;;;;5193886;22;20153;-93
2023/02/18 06:06:07;;;;;;;16.73;1.50;;;10.80;99.90;;;;;;5193459;22;20150;-95
2023/02/18 06:08:07;;;;;;;10.27;1.70;;;10.80;99.90;;;;;;5218823;22;20165;-94
2023/02/18 06:10:08;;;;;;;12.15;1.45;;;10.90;99.90;;;;;;5193719;22;20219;-92
2023/02/18 06:12:09;;;;;;;17.38;2.22;;;10.70;99.90;;;;;;5193395;22;20209;-90
2023/02/18 06:14:10;;;;;;;13.95;2.05;;;10.80;99.90;;;;;;5193964;22;20158;-91
2023/02/18 06:16:11;;;;;;;14.40;1.80;;;10.80;99.90;;;;;;5193895;22;20146;-93
2023/02/18 06:18:11;;;;;;;12.43;1.65;;;10.80;99.90;;;;;;5193153;22;20566;-91
2023/02/18 06:20:12;;;;;;;25.88;2.42;;;10.70;99.90;;;;;;5193463;22;20250;-96
2023/02/18 06:22:13;;;;;;;14.95;2.35;;;10.70;99.90;;;;;;5193263;22;20142;-92
2023/02/18 06:24:14;;;;;;;18.20;2.13;;;10.80;99.90;;;;;;5193372;22;20162;-90
2023/02/18 06:26:15;;;;;;;13.57;2.10;;;10.80;99.90;;;;;;5193573;22;20225;-91
2023/02/18 06:28:16;;;;;;;15.85;1.92;;;10.70;99.90;;;;;;5219559;22;20149;-93
2023/02/18 06:30:18;;;;;;;18.73;2.08;;;10.70;99.90;;;;;;5193391;22;20224;-91
2023/02/18 06:32:19;;;;;;;15.20;2.00;;;10.80;99.90;;;;;;5194607;22;20178;-90
2023/02/18 06:34:20;;;;;;;11.52;2.03;;;10.70;99.90;;;;;;5195515;22;20181;-92
2023/02/18 06:36:20;;;;;;;11.75;1.75;;;10.70;99.90;;;;;;5195003;22;20232;-89
2023/02/18 06:38:21;;;;;;;12.70;1.73;;;10.60;99.90;;;;;;5194998;22;20177;-92
2023/02/18 06:40:22;;;;;;;14.13;2.13;;;10.60;99.90;;;;;;5195125;22;20170;-90
2023/02/18 06:42:23;;;;;;;20.02;2.33;;;10.60;99.90;;;;;;5194919;22;20622;-92
2023/02/18 06:44:24;;;;;;;18.80;2.20;;;10.80;99.90;;;;;;5194505;22;20146;-94
2023/02/18 06:46:24;;;;;;;16.88;2.35;;;10.80;99.90;;;;;;5194719;22;20178;-93
2023/02/18 06:48:25;;;;;;;9.70;1.83;;;10.90;99.90;;;;;;5194481;22;20231;-94
2023/02/18 06:50:26;;;;;;;21.27;2.30;;;10.90;99.90;;;;;;5194772;22;20197;-91
2023/02/18 06:52:26;;;;;;;22.85;2.20;;;10.80;99.90;;;;;;5194632;22;20186;-91
2023/02/18 06:54:27;;;;;;;15.95;1.90;;;10.90;99.90;;;;;;5194670;22;20529;-92
2023/02/18 06:56:28;;;;;;;13.48;2.38;;;10.90;99.90;;;;;;5194621;22;20154;-91
2023/02/18 06:58:29;;;;;;;15.90;2.30;;;10.90;99.90;;;;;;5194556;22;20158;-91
2023/02/18 07:00:29;;;;;;;20.70;2.28;;;10.80;99.90;;;;;;5194589;22;20150;-91
2023/02/18 07:02:30;;;;;;;17.33;2.10;;;10.80;99.90;;;;;;5194608;22;20184;-96
2023/02/18 07:04:31;;;;;;;13.30;2.25;;;10.90;99.90;;;;;;5220291;22;20172;-92
2023/02/18 07:06:32;;;;;;;14.70;1.85;;;10.90;99.90;;;;;;5194409;22;20566;-94
2023/02/18 07:08:35;;;;;;;17.27;2.38;;;11.00;99.90;;;;;;5194563;22;20156;-95
2023/02/18 07:10:35;;;;;;;13.25;2.33;;;11.00;99.90;;;;;;5194633;22;20206;-92
2023/02/18 07:12:36;;;;;;;20.25;2.08;;;11.00;99.90;;;;;;5194630;22;20186;-91
2023/02/18 07:14:37;;;;;;;17.60;2.78;;;11.10;99.90;;;;;;5194521;22;20157;-91
2023/02/18 07:16:38;;;;;;;12.32;2.25;;;10.90;99.90;;;;;;5195013;22;20186;-92
2023/02/18 07:18:39;;;;;;;14.50;1.98;;;10.90;99.90;;;;;;5194563;22;20512;-91
2023/02/18 07:20:39;;;;;;;11.70;1.70;;;10.90;99.90;;;;;;5194683;22;20589;-92
2023/02/18 07:22:40;;;;;;;17.33;2.13;;;10.90;99.90;;;;;;5194408;22;20142;-95
2023/02/18 07:24:41;;;;;;;20.13;2.30;;;11.00;99.90;;;;;;5194469;22;20162;-95
2023/02/18 07:26:41;;;;;;;19.20;2.15;;;11.00;99.90;;;;;;5194478;22;20150;-91
2023/02/18 07:28:43;;;;;;;17.77;2.10;;;11.10;99.90;;;;;;5194311;22;20161;-91
2023/02/18 07:30:44;;;;;;;15.18;2.15;;;11.10;99.90;;;;;;5194453;22;20221;-91
2023/02/18 07:32:45;;;;;;;16.27;2.00;;;11.00;99.90;;;;;;5194339;22;20182;-91
2023/02/18 07:34:46;;;;;;;21.10;2.65;;;10.90;99.90;;;;;;5194562;22;20157;-90
2023/02/18 07:36:46;;;;;;;15.57;2.42;;;10.90;99.90;;;;;;5194391;22;20150;-95
2023/02/18 07:38:47;;;;;;;16.10;2.30;;;10.80;99.90;;;;;;5219912;22;20169;-95
2023/02/18 07:40:48;;;;;;;15.48;2.50;;;10.80;99.90;;;;;;5194564;22;20209;-93
2023/02/18 07:42:49;;;;;;;14.82;2.17;;;10.80;99.90;;;;;;5194393;22;20201;-91
2023/02/18 07:44:50;;;;;;;15.18;2.33;;;10.80;99.90;;;;;;5194124;22;20158;-92
2023/02/18 07:46:52;;;;;;;15.13;2.63;;;10.80;99.90;;;;;;5194749;22;20589;-92
2023/02/18 07:48:52;;;;;;;17.00;1.92;;;10.80;99.90;;;;;;5194409;22;20197;-91
2023/02/18 07:50:53;;;;;;;13.80;2.10;;;10.80;99.90;;;;;;5194465;22;20158;-91
2023/02/18 07:52:54;;;;;;;17.85;2.10;;;10.90;99.90;;;;;;5194169;22;20194;-92
2023/02/18 07:54:54;;;;;;;23.85;2.50;;;10.90;99.90;;;;;;5194441;22;20153;-91
2023/02/18 07:56:55;;;;;;;15.70;1.98;;;10.90;99.90;;;;;;5194279;22;20146;-92
2023/02/18 07:58:56;;;;;;;12.15;1.40;;;11.00;99.90;;;;;;5193888;22;20170;-90
2023/02/18 08:00:57;;;;;;;13.45;1.65;;;11.10;99.90;;;;;;5219800;22;20154;-91
2023/02/18 08:02:58;;;;;;;13.65;2.17;;;11.00;99.90;;;;;;5219738;22;20273;-90
2023/02/18 08:04:58;;;;;;;19.00;1.90;;;11.00;99.90;;;;;;5194190;22;20589;-91
2023/02/18 08:06:59;;;;;;;13.82;2.05;;;10.90;99.90;;;;;;5193855;22;20177;-92
2023/02/18 08:09:00;;;;;;;14.45;2.47;;;10.90;99.90;;;;;;5193935;22;20232;-91
2023/02/18 08:11:01;;;;;;;12.10;1.63;;;10.90;99.90;;;;;;5194087;22;20593;-94
2023/02/18 08:13:02;;;;;;;14.48;1.77;;;10.90;99.90;;;;;;5194056;22;20264;-91
2023/02/18 08:15:03;;;;;;;15.20;2.00;;;10.90;99.90;;;;;;5219502;22;20164;-96
2023/02/18 08:17:04;;;;;;;16.40;1.67;;;10.90;99.90;;;;;;5194192;22;20162;-91
2023/02/18 08:19:05;;;;;;;12.52;1.42;;;11.10;99.90;;;;;;5194126;22;20174;-90
2023/02/18 08:21:05;;;;;;;18.15;1.88;;;11.10;99.90;;;;;;5194109;22;20591;-94
2023/02/18 08:23:06;;;;;;;19.65;2.00;;;11.10;99.90;;;;;;5194084;22;20186;-92
2023/02/18 08:25:07;;;;;;;11.02;1.33;;;11.10;99.90;;;;;;5193950;22;20666;-91
2023/02/18 08:27:08;;;;;;;7.72;1.17;;;11.10;99.90;;;;;;5193818;22;20320;-90
2023/02/18 08:29:08;;;;;;;12.02;1.42;;;11.10;99.90;;;;;;5193726;22;20170;-92
2023/02/18 08:31:27;;;;;;;13.75;1.67;;;11.20;99.90;;;;;;5193947;22;20233;-91
2023/02/18 08:33:28;;;;;;;10.98;1.45;;;11.30;99.90;;;;;;5193731;22;20248;-91
2023/02/18 08:35:29;;;;;;;12.32;1.67;;;11.40;99.90;;;;;;5193921;22;20574;-94
2023/02/18 08:37:30;;;;;;;7.50;1.63;;;11.30;99.90;;;;;;5194037;22;20482;-92
2023/02/18 08:39:35;;;;;;;9.80;1.70;;;11.20;99.90;;;;;;5219160;22;20169;-93
2023/02/18 08:41:35;;;;;;;11.25;1.80;;;11.30;99.90;;;;;;5193880;22;20146;-92
2023/02/18 08:43:36;;;;;;;14.35;2.10;;;11.20;99.90;;;;;;5193947;22;20209;-93
2023/02/18 08:45:38;;;;;;;9.68;2.38;;;11.10;99.90;;;;;;5193922;22;20604;-94
2023/02/18 08:47:39;;;;;;;14.20;2.50;;;11.10;99.90;;;;;;5193732;22;20150;-94
2023/02/18 08:49:39;;;;;;;13.85;1.95;;;11.20;99.90;;;;;;5193741;22;20193;-91
2023/02/18 08:51:40;;;;;;;18.05;2.65;;;11.20;99.90;;;;;;5193841;22;20216;-94
2023/02/18 08:53:41;;;;;;;14.18;2.50;;;11.30;99.90;;;;;;5194092;22;20212;-93
2023/02/18 08:55:42;;;;;;;13.35;1.92;;;11.50;99.90;;;;;;5196203;22;20158;-93
2023/02/18 08:57:43;;;;;;;11.65;1.35;;;11.50;99.90;;;;;;5194869;22;20162;-93
2023/02/18 08:59:43;;;;;;;12.98;1.60;;;11.60;99.90;;;;;;5193956;22;20312;-93
2023/02/18 09:01:44;;;;;;;10.63;1.58;;;11.60;99.90;;;;;;5193994;22;20156;-92
2023/02/18 09:03:45;;;;;;;12.05;1.80;;;11.60;99.90;;;;;;5197139;22;20142;-92
2023/02/18 09:05:45;;;;;;;11.82;1.50;;;11.70;99.90;;;;;;5195250;22;20632;-92
2023/02/18 09:07:46;;;;;;;10.80;1.63;;;11.90;99.90;;;;;;5194182;22;20158;-92
2023/02/18 09:09:47;;;;;;;7.53;1.60;;;11.90;99.90;;;;;;5193804;22;20170;-94
2023/02/18 09:11:48;;;;;;;7.82;1.60;;;11.90;99.90;;;;;;5193810;22;20233;-91
2023/02/18 09:13:49;;;;;;;4.40;0.80;;;12.00;99.90;;;;;;5219851;22;20186;-91
2023/02/18 09:15:57;;;;;;;10.05;1.38;;;12.00;99.90;;;;;;5194428;22;20146;-93
2023/02/18 09:17:58;;;;;;;7.13;1.38;;;11.80;99.90;;;;;;5194231;22;20658;-92
2023/02/18 09:19:59;;;;;;;11.45;1.23;;;11.90;99.90;;;;;;5193891;22;20177;-92
2023/02/18 09:22:00;;;;;;;10.57;1.20;;;12.10;99.90;;;;;;5193830;22;20150;-93
2023/02/18 09:24:00;;;;;;;13.55;1.40;;;12.00;99.90;;;;;;5220066;22;20196;-93
2023/02/18 09:26:05;;;;;;;10.20;1.33;;;11.90;99.90;;;;;;5193689;22;20149;-93
2023/02/18 09:28:05;;;;;;;11.85;1.45;;;12.00;99.90;;;;;;5219834;22;20206;-92
2023/02/18 09:30:06;;;;;;;10.50;1.20;;;11.90;99.90;;;;;;5194537;22;20174;-94
2023/02/18 09:32:08;;;;;;;10.60;1.55;;;11.80;99.90;;;;;;5219506;22;20157;-92
2023/02/18 09:34:09;;;;;;;6.97;1.10;;;11.90;99.90;;;;;;5194031;22;20150;-95
2023/02/18 09:36:10;;;;;;;8.20;1.20;;;11.80;99.90;;;;;;5193647;22;20245;-94
2023/02/18 09:38:13;;;;;;;9.15;1.20;;;11.90;99.90;;;;;;5193813;22;20233;-94
2023/02/18 09:40:32;;;;;;;7.03;1.27;;;11.80;99.90;;;;;;5195292;22;20170;-94
2023/02/18 09:42:34;;;;;;;11.68;1.60;;;11.90;99.90;;;;;;5195353;22;20219;-91
2023/02/18 09:44:53;;;;;;;9.90;1.30;;;11.90;99.90;;;;;;5194035;22;20158;-93
2023/02/18 09:47:02;;;;;;;9.73;1.25;;;11.80;99.90;;;;;;5193813;22;20165;-91
2023/02/18 09:49:12;;;;;;;6.05;1.35;;;11.70;99.90;;;;;;5194220;22;20229;-92
2023/02/18 09:51:18;;;;;;;6.40;0.80;;;11.70;99.90;;;;;;5196452;22;20150;-94
2023/02/18 09:53:21;;;;;;;6.40;1.42;;;11.90;99.90;;;;;;5221590;22;20193;-93
2023/02/18 09:55:37;;;;;;;8.63;1.58;;;11.80;99.90;;;;;;5196676;22;20551;-95
2023/02/18 09:57:43;;;;;;;10.02;1.80;;;11.70;99.90;;;;;;5195207;22;20157;-94
2023/02/18 09:59:47;;;;;;;8.32;1.33;;;11.90;99.90;;;;;;5194308;22;20605;-92
2023/02/18 10:01:51;;;;;;;8.23;1.50;;;11.90;99.90;;;;;;5195824;22;20233;-92
2023/02/18 10:03:52;;;;;;;9.68;1.45;;;11.80;99.90;;;;;;5195065;22;20146;-92
2023/02/18 10:05:59;;;;;;;8.02;1.48;;;11.90;99.90;;;;;;5195203;22;20146;-95
2023/02/18 10:08:15;;;;;;;6.35;1.13;;;11.90;99.90;;;;;;5196255;22;20173;-93
2023/02/18 10:10:44;;;;;;;14.05;1.52;;;11.90;99.90;;;;;;5221287;22;20187;-92
2023/02/18 10:12:45;;;;;;;10.40;1.30;;;11.80;99.90;;;;;;5195338;22;20181;-94
2023/02/18 10:14:58;;;;;;;9.80;1.20;;;11.90;99.90;;;;;;5195632;22;20157;-95
2023/02/18 10:16:59;;;;;;;7.18;1.10;;;12.00;99.90;;;;;;5195899;22;20216;-94
2023/02/18 10:19:04;;;;;;;10.25;1.13;;;12.00;99.90;;;;;;5195514;22;20170;-95
2023/02/18 10:21:10;;;;;;;17.67;1.85;;;12.10;99.90;;;;;;5195697;22;20208;-94
2023/02/18 10:23:13;;;;;;;11.45;1.52;;;12.20;99.90;;;;;;5196158;22;20143;-95
2023/02/18 10:25:19;;;;;;;12.75;1.58;;;12.30;99.90;;;;;;5195683;22;20150;-94
2023/02/18 10:27:27;;;;;;;4.90;1.10;;;12.30;99.90;;;;;;5195193;22;20142;-94
2023/02/18 10:29:31;;;;;;;9.05;1.25;;;12.30;99.90;;;;;;5196310;22;20173;-94
2023/02/18 10:31:43;;;;;;;9.57;1.65;;;12.30;99.90;;;;;;5195842;22;20153;-94
2023/02/18 10:34:03;;;;;;;7.30;1.40;;;12.20;99.90;;;;;;5195525;22;20185;-93
2023/02/18 10:36:26;;;;;;;11.45;1.48;;;12.20;99.90;;;;;;5197861;22;20146;-94
2023/02/18 10:38:50;;;;;;;8.13;1.50;;;12.30;99.90;;;;;;5196539;22;20147;-92
2023/02/18 10:41:22;;;;;;;6.95;1.10;;;12.20;99.90;;;;;;5196805;22;20150;-95
2023/02/18 10:43:39;;;;;;;7.60;1.48;;;12.10;99.90;;;;;;5138560;22;20221;-96